• Join FlightAware (Why Join?)
  • Login
  • US Flag 
01:48AM EDT


 

Airport Tracker/Info


-or-


 

Live Flight TrackerFlight Track Log ✈ N307TS ✈ 14-Sep-2013 ✈ KMSO - KBIL

Flight Track Log - Related Links

Times and Time Zones

All times are in EDT time to prevent confusion due to time zone crossing. See the N307TS flight status page for this flight to view local times or setup timezone preferences in your user account.

Time Position Orientation Groundspeed Altitude Reporting Facility
EDT Latitude Longitude Course Direction KTS MPH feet Rate Location/Type
12:05AM 46.8758 -113.9114 100° East 136 157 8,200  Level Salt Lake Center
12:06AM 46.8675 -113.8492 101° East 154 177 9,300 1,080 Climbing Salt Lake Center
12:07AM 46.8558 -113.7833 105° East 166 191 10,500 1,140 Climbing Salt Lake Center
12:08AM 46.8444 -113.7169 104° East 169 194 11,600 1,140 Climbing Salt Lake Center
12:10AM 46.8319 -113.6483 105° East 174 200 12,900 1,260 Climbing Salt Lake Center
12:11AM 46.8250 -113.5674 100° East  Level Estimated
12:11AM 46.8197 -113.5756 104° East 172 198 14,200  Level Salt Lake Center
12:12AM 46.8078 -113.5089 105° East 170 196 15,400 1,020 Climbing Salt Lake Center
12:13AM 46.7953 -113.4408 105° East 174 200 16,300 900 Climbing Salt Lake Center
12:14AM 46.7839 -113.3692 103° East 181 208 17,300 840 Climbing Salt Lake Center
12:15AM 46.7706 -113.2975 105° East 183 211 18,100 840 Climbing Salt Lake Center
12:16AM 46.7575 -113.2264 105° East 183 211 19,100 900 Climbing Salt Lake Center
12:17AM 46.7461 -113.1561 103° East 181 208 20,000 840 Climbing Salt Lake Center
12:18AM 46.7331 -113.0869 105° East 177 204 20,900 780 Climbing Salt Lake Center
12:19AM 46.7203 -113.0169 105° East 179 206 21,600 660 Climbing Salt Lake Center
12:20AM 46.7067 -112.9458 106° East 182 209 22,300 600 Climbing Salt Lake Center
12:21AM 46.6931 -112.8703 105° East 180 207 22,900 540 Climbing Salt Lake Center
12:22AM 46.6800 -112.7983 105° East 184 212 23,500 480 Climbing Salt Lake Center
12:23AM 46.6658 -112.7247 106° East 190 219 23,900 420 Climbing Salt Lake Center
12:24AM 46.6522 -112.6494 105° East 192 221 24,400 420 Climbing Salt Lake Center
12:25AM 46.6392 -112.5750 104° East 192 221 24,800 300 Climbing Salt Lake Center
12:26AM 46.6244 -112.4978 105° East 198 228 25,000 60 Climbing Salt Lake Center
12:27AM 46.6089 -112.4161 105° East 211 243 25,000  Level Salt Lake Center
12:28AM 46.5922 -112.3297 106° East 221 254 25,000  Level Salt Lake Center
12:29AM 46.5764 -112.2397 104° East 227 261 25,000  Level Salt Lake Center
12:30AM 46.5594 -112.1494 105° East 231 266 25,000  Level Salt Lake Center
12:31AM 46.5411 -112.0583 106° East 233 268 25,000  Level Salt Lake Center
12:32AM 46.5239 -111.9675 105° East 234 269 25,000  Level Salt Lake Center
12:33AM 46.5067 -111.8778 106° East 232 267 25,000  Level Salt Lake Center
12:34AM 46.4889 -111.7872 106° East 234 269 25,000  Level Salt Lake Center
12:35AM 46.4714 -111.6969 106° East 233 268 25,000  Level Salt Lake Center
12:36AM 46.4542 -111.6081 106° East 231 266 25,000  Level Salt Lake Center
12:37AM 46.4336 -111.5072 106° East 235 270 25,000  Level Salt Lake Center
12:38AM 46.4158 -111.4133 105° East 237 273 25,000  Level Salt Lake Center
12:39AM 46.3972 -111.3200 106° East 238 274 25,000  Level Salt Lake Center
12:40AM 46.3797 -111.2256 105° East 238 274 25,000  Level Salt Lake Center
12:41AM 46.3608 -111.1331 106° East 236 272 25,000  Level Salt Lake Center
12:42AM 46.3439 -111.0486 106° East 234 269 25,000  Level Salt Lake Center
12:43AM 46.3256 -110.9586 106° East 231 266 25,000  Level Salt Lake Center
12:44AM 46.3067 -110.8689 107° East 233 268 25,000  Level Salt Lake Center
12:45AM 46.2889 -110.7769 106° East 237 273 25,000  Level Salt Lake Center
12:46AM 46.2694 -110.6864 107° East 236 272 25,000  Level Salt Lake Center
12:47AM 46.2514 -110.5972 106° East 233 268 25,000  Level Salt Lake Center
12:48AM 46.2325 -110.5064 107° East 235 270 25,000  Level Salt Lake Center
12:49AM 46.2144 -110.4161 106° East 235 270 25,000  Level Salt Lake Center
12:50AM 46.1953 -110.3269 107° East 234 269 25,000 -60 Level Salt Lake Center
12:51AM 46.1775 -110.2367 106° East 233 268 24,900 -420 Descending Salt Lake Center
12:52AM 46.1561 -110.1425 108° East 244 281 24,200 -720 Descending Salt Lake Center
12:53AM 46.1350 -110.0400 107° East 261 300 23,500 -720 Descending Salt Lake Center
12:54AM 46.1142 -109.9400 107° East 262 302 22,800 -900 Descending Salt Lake Center
12:55AM 46.0936 -109.8403 107° East 260 299 21,700 -1,200 Descending Salt Lake Center
12:56AM 46.0742 -109.7411 106° East 257 296 20,400 -1,440 Descending Salt Lake Center
12:57AM 46.0525 -109.6375 107° East 250 288 18,800 -1,440 Descending Salt Lake Center
12:58AM 46.0300 -109.5392 108° East 258 297 17,500 -1,440 Descending Salt Lake Center
12:59AM 46.0083 -109.4394 107° East 264 304 16,000 -1,500 Descending Salt Lake Center
01:00AM 45.9850 -109.3331 107° East 263 303 14,500 -1,440 Descending Salt Lake Center
01:01AM 45.9631 -109.2331 107° East 266 306 13,100 -1,440 Descending Salt Lake Center
01:02AM 45.9403 -109.1322 108° East 268 308 11,700 -1,440 Descending Salt Lake Center
01:03AM 45.9317 -109.0333 97° East 250 288 10,300 -1,320 Descending Salt Lake Center
01:04AM 45.9208 -108.9428 100° East 235 270 9,100 -1,200 Descending Salt Lake Center
01:05AM 45.8989 -108.8678 113° Southeast 212 244 8,000 -1,140 Descending Salt Lake Center
01:06AM 45.8772 -108.7911 112° Southeast 196 226 6,900 -1,020 Descending Salt Lake Center
01:07AM 45.8583 -108.7219 111° Southeast 191 220 6,000 -900 Descending Salt Lake Center
01:08AM 45.8419 -108.6631 112° Southeast 169 194 5,200 -660 Descending Salt Lake Center
01:09AM 45.8311 -108.6214 110° East 121 139 4,700 -600 Descending Salt Lake Center
01:10AM 45.8211 -108.5853 112° Southeast 103 119 4,100 -600 Descending Salt Lake Center
01:11AM 45.8092 -108.5439 112° Southeast 105 121 3,600 -540 Descending Salt Lake Center
01:13AM 45.8077 -108.5429 110° East  Level Estimated